Pagrindinis puslapis
METAR-TAF:

METAR-TAF

Oro uostai :

Mersing, Malaizija

platuma: 02-23-00N, ilguma: 103-51-34E, Aukštis: 3 m

Dabartinis oras

Ataskaita buvo paskelbta 30 minutes, ne 10:00 UTC
Vėjas 8 kt iš Vakarų/Pietvakarių, svyruoja nuo Pietvakarių ir Šiaurės Vakarų
Temperatūra 26°C
Drėgmė 89%
Slėgis 1010 hPa

METAR: WMAU 311000Z AUTO 24008KT 230V310 //// // ////// 26/24 Q1010

Laikas: 18:30 (10:30 UTC)


TAF: trūkstamas

Orai ataskaitas ir orų prognozės (METAR, TAF).

turimą stotys yra geltonos ir raudonos taškus žemėlapyje.

Perkelti pele per norėdami pamatyti stoties vardą.

Tada spustelėkite, norėdami matyti oro stebėjimo ir prognozės.

Norėdami pakeisti žemėlapį: spustelėkite ant žalios mygtukų su juodo kryžiaus žemyn,; žalią mygtuką su brūkšneliu, jei norite nutolinti; arba žalių rodyklių gretimoms žemėlapius.


METAR-TAF: